Terminal Aerodrome Forecast
Issued by NWS Charleston, WV

Current Version | Previous Version | Graphics & Text | Print | Product List | Glossary On
Versions: 1 2 3 4 5 6 7 8 9 10 11 12 13 14 15 16 17 18 19 20 21 22 23
000
FTUS41 KRLX 292300
TAFEKN
TAF
KEKN 292335Z 3000/3024 20004KT P6SM BKN200
     FM300500 23008KT P6SM -RASN OVC080
     FM300900 23010G15KT P6SM -SHRASN OVC030
     FM301100 25010KT P6SM OVC025
     FM301300 26010G16KT P6SM BKN025
     FM301700 27012G19KT P6SM BKN035
     FM302100 27014G21KT P6SM SCT040=

USA.gov is the U.S. government's official web portal to all federal, state and local government web resources and services.